createdAt,value
2022-10-19T00:01:46.322Z,100.00
2022-10-19T00:06:50.305Z,100.00
2022-10-19T00:11:54.031Z,100.00
2022-10-19T00:16:59.386Z,100.00
2022-10-19T00:22:03.012Z,100.00
2022-10-19T00:27:06.552Z,100.00
2022-10-19T00:32:12.180Z,100.00
2022-10-19T00:37:16.268Z,100.00
2022-10-19T00:42:19.827Z,100.00
2022-10-19T00:47:26.230Z,100.00
2022-10-19T00:52:30.355Z,100.00
2022-10-19T00:57:34.927Z,100.00
2022-10-19T01:02:40.377Z,100.00
2022-10-19T01:07:44.315Z,100.00
2022-10-19T01:13:04.538Z,100.00
2022-10-19T01:18:19.204Z,100.00
2022-10-19T01:23:58.123Z,100.00
2022-10-19T01:29:11.915Z,100.00
2022-10-19T01:34:21.319Z,100.00
2022-10-19T01:54:38.686Z,100.00
2022-10-19T01:59:43.071Z,100.00
2022-10-19T02:04:47.326Z,100.00
2022-10-19T02:09:52.685Z,100.00
2022-10-19T02:14:59.945Z,100.00
2022-10-19T02:21:18.574Z,100.00
2022-10-19T03:45:04.066Z,100.00
2022-10-19T04:01:25.777Z,100.00
2022-10-19T04:06:31.012Z,100.00
2022-10-19T04:17:27.333Z,100.00
2022-10-19T04:22:36.100Z,100.00
2022-10-19T04:51:07.799Z,100.00
2022-10-19T05:31:09.634Z,100.00
2022-10-19T05:36:19.059Z,100.00
2022-10-19T05:41:48.562Z,100.00
2022-10-19T05:47:19.175Z,100.00
2022-10-19T06:05:41.826Z,100.00
2022-10-19T06:16:57.017Z,100.00
2022-10-19T06:22:06.700Z,100.00
2022-10-19T06:27:10.163Z,100.00
2022-10-19T06:32:14.936Z,100.00
2022-10-19T07:12:41.239Z,100.00
2022-10-19T07:29:25.224Z,100.00
2022-10-19T07:34:29.492Z,100.00
2022-10-19T07:39:35.660Z,100.00
2022-10-19T07:44:41.430Z,100.00
2022-10-19T08:41:58.540Z,92.42
2022-10-19T08:47:12.305Z,92.24
2022-10-19T08:52:21.538Z,86.71
2022-10-19T08:57:34.767Z,85.01
2022-10-19T09:03:03.962Z,85.24
2022-10-19T09:30:43.058Z,83.81
2022-10-19T09:35:52.031Z,80.17
2022-10-19T09:52:56.902Z,80.39
2022-10-19T11:45:06.865Z,80.41
2022-10-19T12:14:39.139Z,81.42
2022-10-19T12:25:50.331Z,80.09
2022-10-19T15:46:14.100Z,90.63
2022-10-19T15:51:38.709Z,91.54
2022-10-19T15:56:43.507Z,91.60
2022-10-19T16:01:54.997Z,92.53
2022-10-19T16:07:02.445Z,93.66
2022-10-19T16:12:06.886Z,94.66
2022-10-19T16:17:13.731Z,95.19
2022-10-19T16:22:19.439Z,95.77
2022-10-19T16:27:23.780Z,95.85
2022-10-19T16:32:28.383Z,96.10
2022-10-19T16:37:34.465Z,96.84
2022-10-19T16:42:38.290Z,98.46
2022-10-19T16:47:41.991Z,99.21
2022-10-19T16:52:47.983Z,100.00
2022-10-19T16:57:52.887Z,100.00
2022-10-19T17:02:56.274Z,100.00
2022-10-19T17:08:01.267Z,100.00
2022-10-19T17:13:04.759Z,100.00
2022-10-19T17:18:08.208Z,100.00
2022-10-19T17:23:13.534Z,100.00
2022-10-19T17:28:17.350Z,100.00
2022-10-19T17:33:21.427Z,100.00
2022-10-19T17:38:26.744Z,100.00
2022-10-19T17:43:30.206Z,100.00
2022-10-19T17:48:33.822Z,100.00
2022-10-19T17:53:38.847Z,100.00
2022-10-19T17:58:42.605Z,100.00
2022-10-19T18:03:46.142Z,100.00
2022-10-19T18:08:52.378Z,100.00
2022-10-19T18:13:56.971Z,100.00
2022-10-19T18:19:02.327Z,100.00
2022-10-19T18:24:12.722Z,100.00
2022-10-19T18:29:20.723Z,100.00
2022-10-19T18:34:27.256Z,100.00
2022-10-19T18:39:32.663Z,100.00
2022-10-19T18:44:36.096Z,100.00
2022-10-19T18:49:39.566Z,100.00
2022-10-19T19:12:16.797Z,100.00
2022-10-19T19:17:20.240Z,100.00
2022-10-19T19:22:26.149Z,100.00
2022-10-19T19:46:44.596Z,100.00
2022-10-19T19:51:47.917Z,100.00
2022-10-19T19:56:51.651Z,100.00
2022-10-19T20:01:56.536Z,100.00
2022-10-19T20:07:00.079Z,100.00
2022-10-19T20:12:03.988Z,100.00
2022-10-19T20:17:08.746Z,100.00
2022-10-19T20:22:13.144Z,100.00
2022-10-19T20:27:16.582Z,100.00
2022-10-19T20:32:21.370Z,100.00
2022-10-19T20:37:25.750Z,100.00
2022-10-19T20:42:29.210Z,100.00
2022-10-19T20:47:34.030Z,100.00
2022-10-19T20:52:38.587Z,100.00
2022-10-19T20:57:44.541Z,100.00
2022-10-19T21:14:25.300Z,100.00
2022-10-19T21:19:32.174Z,100.00
2022-10-19T21:24:42.823Z,100.00
2022-10-19T22:15:48.558Z,100.00
2022-10-19T22:21:17.827Z,100.00
